Tiempo atmosférico en la estación meteorológica de Briviesca, Burgos (730 m.)



Fecha
DESCASC
Temp. máxima en grados centígrados (hora)
DESCASC
Temp. mínima en grados centígrados (hora)
DESCASC
Temp. media en grados centígrados
DESCASC
Racha de viento máxima en m/sg (hora)
DESCASC
Velocidad máxima media en intervalos de 10 minutos(hora)
DESCASC
Precipitaciones diarias en mm
DESCASC
Precipitaciones de 00:00 a 06:00 en mm
DESCASC
Precipitaciones de 06:00 a 12:00 en mm
DESCASC
Precipitaciones de 12:00 a 18:00 en mm
DESCASC
Precipitaciones de 18:00 a 24:00 en mm
DESCASC
04-03-2021 12.8 (16:00) 6.6 (00:00) 9.7 8.06 (18:30) 5.28 (18:10) 0 0 0 0 0
03-03-2021 12.1 (15:50) 5.5 (06:00) 8.8 9.72 (00:30) 6.11 (00:20) 0 0 0 0 0
02-03-2021 12.9 (14:30) 5.4 (07:40) 9.1 12.78 (20:30) 8.33 (16:30) 0 0 0 0 0
01-03-2021 10.7 (15:40) 4.2 (04:50) 7.4 12.22 (09:00) 9.17 (09:00) 0 0 0 0 0
28-02-2021 7.3 (17:00) 1.3 (00:00) 4.3 11.39 (23:50) 7.78 (22:10) 4.2 0 0 0 4.2
27-02-2021 12 (15:30) 2.7 (00:00) 7.4 6.67 (12:30) 5.28 (17:30) 0 0 0 0 0
26-02-2021 11 (15:20) 6.1 (00:00) 8.5 7.22 (14:30) 5.28 (15:40) 0 0 0 0 0
25-02-2021 10.2 (00:10) 5.1 (00:00) 7.6 8.06 (04:30) 4.72 (12:40) 0 0 0 0 0
24-02-2021 16.7 (17:10) 0.1 (00:00) 8.4 11.94 (17:10) 8.06 (17:10) 0 0 0 0 0
23-02-2021 13.9 (16:10) 0.1 (00:00) 7 12.5 (14:50) 7.22 (14:40) 0 0 0 0 0
22-02-2021 6.7 (16:50) 0.5 (00:00) 3.6 8.33 (00:20) 4.72 (00:10) 19.2 11.6 7.4 0.2 0
21-02-2021 14.5 (00:00) 4.4 (00:00) 9.5 14.17 (09:00) 9.17 (09:00) 10.6 0 0 0 10.6
20-02-2021 17.6 (16:10) 3.1 (00:00) 10.4 16.39 (14:00) 10.28 (13:40) 0 0 0 0 0
19-02-2021 17 (16:40) 5.3 (00:00) 11.2 16.39 (12:50) 10.28 (13:40) 0 0 0 0 0
18-02-2021 13.8 (13:00) 4.9 (00:00) 9.4 21.39 (10:00) 13.61 (10:00) 0.4 0 0 0 0.4
17-02-2021 13.6 (14:30) 5.1 (00:00) 9.4 13.33 (16:30) 7.78 (13:10) 0 0 0 0 0
16-02-2021 14.6 (14:10) 4.6 (00:00) 9.6 16.39 (11:40) 9.17 (14:20) 0 0 0 0 0
15-02-2021 6.4 (00:00) 4.3 (00:00) 5.4 8.33 (16:30) 5.28 (15:00) 0 0 0 0 0
14-02-2021 10.7 (13:50) -0.2 (00:00) 5.2 10.28 (20:20) 6.94 (14:10) 0 0 0 0 0
13-02-2021 11.4 (15:40) 0.9 (00:00) 6.1 6.67 (11:30) 4.17 (11:50) 0 0 0 0 0
12-02-2021 11.5 (16:20) 4.7 (00:00) 8.1 13.33 (04:10) 9.17 (04:10) 3.6 0.8 2.6 0.2 0
11-02-2021 13.8 (15:50) 5.8 (00:00) 9.8 11.39 (15:30) 7.5 (15:50) 0 0 0 0 0
10-02-2021 9.8 (16:00) 3.3 (00:00) 6.6 13.06 (06:00) 8.33 (14:50) 1.6 1.6 0 0 0
09-02-2021 8.8 (10:20) 3.5 (00:00) 6.2 24.72 (11:10) 15.56 (11:10) 6.8 0.6 0.6 5.6 0
08-02-2021 9.5 (15:10) 4.5 (00:00) 7 14.44 (23:59) 9.44 (21:50) 0.4 0.2 0 0.2 0
07-02-2021 6.2 (15:50) -0.7 (-00:0) 2.7 12.5 (17:30) 8.06 (15:00) 0.8 0 0 0 0.8
06-02-2021 8.7 (01:40) 2.9 (00:00) 5.8 7.22 (20:30) 3.89 (09:30) 19.4 3.8 4.8 9.8 1
05-02-2021 10.9 (15:50) 3.4 (00:00) 7.1 7.22 (15:40) 4.72 (15:50) 0.6 0 0.6 0 0
04-02-2021 9.4 (11:10) 4.6 (00:00) 7 10 (00:10) 6.67 (00:10) 0.8 0.2 0.2 0 0.4
03-02-2021 12.1 (12:30) 7.8 (00:00) 10 23.61 (01:30) 16.94 (02:40) 1 0 0 0.2 0.8

Gráficas

Temp. máximas Temp. mínimas Temp. medias Precipitaciones Rachas de viento máximas Velocidades máximas media en intervalos de 10 minutos

Datos horarios

Fecha y hora oficial Temperatura (ºC) Velocidad del viento (km/h) Dirección del viento Racha (km/h) Dirección de racha Precipitación (mm) Presión (hPa) Tendencia (hPa) Humedad (%)
2021-03-04 23:00:00 6.7 9 Sudeste 17 Sudeste 0 -- -- 100
2021-03-04 22:00:00 6.8 3 Sudeste 13 Sudeste 0 -- -- 98
2021-03-04 21:00:00 6.9 0 Calma 11 Oeste 0 -- -- 95
2021-03-04 20:00:00 7.9 3 Sudeste 25 Este 0 -- -- 93
2021-03-04 19:00:00 9.3 16 Sudeste 29 Sudeste 0 -- -- 89
2021-03-04 18:00:00 11.1 17 Sudeste 27 Este 0 -- -- 83
2021-03-04 17:00:00 12.5 16 Sudeste 22 Este 0 -- -- 79
2021-03-04 16:00:00 12.8 11 Este 17 Este 0 -- -- 75
2021-03-04 15:00:00 12.4 6 Este 15 Este 0 -- -- 79
2021-03-04 14:00:00 11.5 10 Este 21 Este 0 -- -- 81
2021-03-04 13:00:00 10.9 6 Nordeste 14 Este 0 -- -- 82
2021-03-04 12:00:00 8.9 5 Nordeste 18 Este 0 -- -- 89
2021-03-04 11:00:00 8.1 7 Sudeste 12 Este 0 -- -- 90
2021-03-04 10:00:00 7.7 6 Sudeste 12 Este 0 -- -- 93
2021-03-04 09:00:00 7.7 6 Este 11 Sudeste 0 -- -- 94
2021-03-04 08:00:00 7.5 0 Calma 12 Sudeste 0 -- -- 95
2021-03-04 07:00:00 7.5 6 Sudeste 13 Sudeste 0 -- -- 96
2021-03-04 06:00:00 7.4 0 Calma 5 Sudeste 0 -- -- 97
2021-03-04 05:00:00 7.2 0 Calma 14 Sudeste 0 -- -- 98
2021-03-04 04:00:00 7 4 Sudeste 12 Sudeste 0 -- -- 100
2021-03-04 03:00:00 7 4 Este 8 Sudeste 0 -- -- 100
2021-03-04 02:00:00 6.6 6 Sudoeste 10 Este 0 -- -- 100
2021-03-04 01:00:00 6.6 2 Sudoeste 7 Sudoeste 0 -- -- 100
2021-03-04 00:00:00 6.6 5 Este 9 Este 0 -- -- 100
2021-03-03 23:00:00 7 4 Sudeste 10 Sudeste 0 -- -- 100
2021-03-03 22:00:00 7.2 5 Sudeste 13 Sudeste 0 -- -- 99
2021-03-03 21:00:00 7.3 4 Sudoeste 11 Sudoeste 0 -- -- 97
2021-03-03 20:00:00 7.9 5 Oeste 19 Este 0 -- -- 95
2021-03-03 19:00:00 9.4 12 Sudeste 24 Sudeste 0 -- -- 91
2021-03-03 18:00:00 10.8 15 Sudeste 25 Sudeste 0 -- -- 85
2021-03-03 17:00:00 11.9 14 Sudeste 22 Sudeste 0 -- -- 79
2021-03-03 16:00:00 12.1 10 Sudeste 18 Sudeste 0 -- -- 79
2021-03-03 15:00:00 11.6 7 Este 16 Este 0 -- -- 81
2021-03-03 14:00:00 10.4 5 Este 13 Este 0 -- -- 83
2021-03-03 13:00:00 9.1 4 Sudeste 12 Nordeste 0 -- -- 87
2021-03-03 12:00:00 8.1 6 Este 17 Sudeste 0 -- -- 91
2021-03-03 11:00:00 7.6 9 Sudeste 15 Sudeste 0 -- -- 94
2021-03-03 10:00:00 6.5 6 Sur 14 Sudeste 0 -- -- 100
2021-03-03 09:00:00 5.7 5 Sudoeste 13 Sudoeste 0 -- -- 100
2021-03-03 08:00:00 5.7 8 Sur 14 Sur 0 -- -- 100
2021-03-03 07:00:00 5.6 4 Sur 14 Sudeste 0 -- -- 100
2021-03-03 06:00:00 5.5 4 Sudeste 10 Este 0 -- -- 100
2021-03-03 05:00:00 5.8 8 Este 14 Sudeste 0 -- -- 100
2021-03-03 04:00:00 5.9 6 Sudeste 15 Sudeste 0 -- -- 100
2021-03-03 03:00:00 6.4 5 Sudeste 12 Sudeste 0 -- -- 99
2021-03-03 02:00:00 6.6 5 Sudeste 16 Sur 0 -- -- 98
2021-03-03 01:00:00 6.7 9 Sudeste 35 Sudeste 0 -- -- 98
2021-03-03 00:00:00 7.1 18 Sudeste 32 Sudeste 0 -- -- 97
2021-03-02 23:00:00 7.2 19 Sudeste 37 Sudeste 0 -- -- 96
2021-03-02 22:00:00 7.5 21 Sudeste 40 Sudeste 0 -- -- 94
2021-03-02 21:00:00 7.9 21 Sudeste 46 Este 0 -- -- 92
2021-03-02 20:00:00 8.7 23 Sudeste 36 Este 0 -- -- 89
2021-03-02 19:00:00 9.4 27 Este 42 Sudeste 0 -- -- 85
2021-03-02 18:00:00 10.4 26 Sudeste 45 Este 0 -- -- 82
2021-03-02 17:00:00 11.8 28 Este 43 Este 0 -- -- 80
2021-03-02 16:00:00 12.2 27 Sudeste 38 Este 0 -- -- 76
2021-03-02 15:00:00 12.8 22 Este 32 Este 0 -- -- 76
2021-03-02 14:00:00 12.3 18 Sudeste 30 Este 0 -- -- 76
2021-03-02 13:00:00 10.5 10 Sudeste 19 Sur 0 -- -- 85
2021-03-02 12:00:00 8.2 10 Sudeste 19 Sur 0 -- -- 92
2021-03-02 11:00:00 6.6 5 Sudeste 19 Sudeste 0 -- -- 99
2021-03-02 10:00:00 5.9 10 Sudeste 20 Sudeste 0 -- -- 100
2021-03-02 09:00:00 5.6 10 Sudeste 27 Sudeste 0 -- -- 100
2021-03-02 08:00:00 5.4 7 Sur 24 Sudeste 0 -- -- 100
2021-03-02 07:00:00 5.7 12 Sudeste 25 Sudeste 0 -- -- 100
2021-03-02 06:00:00 5.9 15 Sudeste 24 Sudeste 0 -- -- 100
2021-03-02 05:00:00 5.9 13 Sudeste 24 Sudeste 0 -- -- 100
2021-03-02 04:00:00 6 13 Sudeste 23 Sudeste 0 -- -- 99
2021-03-02 03:00:00 6.2 13 Sudeste 27 Este 0 -- -- 98
2021-03-02 02:00:00 6.2 14 Sudeste 28 Sudeste 0 -- -- 98
2021-03-02 01:00:00 6.5 20 Sudeste 33 Sudeste 0 -- -- 98
2021-03-02 00:00:00 6.6 24 Sudeste 36 Este 0 -- -- 97
2021-03-01 23:00:00 6.7 22 Sudeste 34 Sudeste 0 -- -- 97
2021-03-01 22:00:00 7.1 21 Sudeste 38 Este 0 -- -- 96
2021-03-01 21:00:00 7.2 25 Sudeste 39 Sudeste 0 -- -- 96
2021-03-01 20:00:00 7.5 25 Este 38 Este 0 -- -- 94
2021-03-01 19:00:00 7.9 26 Este 39 Este 0 -- -- 92
2021-03-01 18:00:00 8.9 24 Este 37 Este 0 -- -- 88
2021-03-01 17:00:00 9.7 28 Este 36 Este 0 -- -- 84
2021-03-01 16:00:00 10.2 22 Este 38 Este 0 -- -- 82
2021-03-01 15:00:00 10.1 24 Este 42 Este 0 -- -- 83
2021-03-01 14:00:00 10.1 28 Este 38 Este 0 -- -- 82
2021-03-01 13:00:00 9.4 25 Este 39 Este 0 -- -- 86
2021-03-01 12:00:00 8.3 25 Este 39 Este 0 -- -- 88
2021-03-01 11:00:00 7.2 25 Este 39 Sudeste 0 -- -- 92
2021-03-01 10:00:00 5.7 27 Este 43 Este 0 -- -- 96
2021-03-01 09:00:00 4.8 33 Este 44 Este 0 -- -- 97
2021-03-01 08:00:00 4.5 25 Este 40 Sudeste 0 -- -- 97
2021-03-01 07:00:00 4.4 25 Sudeste 42 Sudeste 0 -- -- 98
2021-03-01 06:00:00 4.4 24 Este 37 Sudeste 0 -- -- 99
2021-03-01 05:00:00 4.2 5 Este 18 Este 0 -- -- 98
2021-03-01 04:00:00 4.9 4 Sudeste 11 Este 0 -- -- 97
2021-03-01 03:00:00 5.4 3 Sudoeste 16 Sudeste 0 -- -- 97
2021-03-01 02:00:00 5.7 14 Sudeste 26 Sudeste 0 -- -- 96
2021-03-01 01:00:00 5.9 5 Sudoeste 36 Sudeste 0 -- -- 97
2021-03-01 00:00:00 6.2 24 Este 41 Este 0.2 -- -- 96
2021-02-28 23:00:00 6.9 19 Este 39 Este 1.8 -- -- 97
2021-02-28 22:00:00 6.8 17 Este 31 Este 2.2 -- -- 97
2021-02-28 21:00:00 6.6 19 Este 34 Este 0 -- -- 96
2021-02-28 20:00:00 6.9 24 Este 39 Este 0 -- -- 95
2021-02-28 19:00:00 7 17 Este 29 Este 0 -- -- 90
2021-02-28 18:00:00 7.2 18 Este 34 Este 0 -- -- 88
2021-02-28 17:00:00 7.3 19 Este 31 Este 0 -- -- 88
2021-02-28 16:00:00 7.2 20 Este 31 Este 0 -- -- 88
2021-02-28 15:00:00 6.8 14 Este 22 Este 0 -- -- 88
2021-02-28 14:00:00 5.9 11 Este 20 Este 0 -- -- 90
2021-02-28 13:00:00 5.4 11 Este 23 Este 0 -- -- 92
2021-02-28 12:00:00 5.4 15 Este 22 Este 0 -- -- 90
2021-02-28 11:00:00 5 14 Nordeste 22 Nordeste 0 -- -- 92
2021-02-28 10:00:00 4.5 10 Este 17 Este 0 -- -- 90
2021-02-28 09:00:00 3.8 7 Este 10 Este 0 -- -- 91
2021-02-28 08:00:00 2.9 0 Calma 8 Este 0 -- -- 95
2021-02-28 07:00:00 2.6 6 Este 10 Este 0 -- -- 96
2021-02-28 06:00:00 3.3 9 Este 14 Este 0 -- -- 95
2021-02-28 05:00:00 2 5 Sudeste 13 Sudeste 0 -- -- 99
2021-02-28 04:00:00 2 0 Calma 5 Sudeste 0 -- -- 93
2021-02-28 03:00:00 3.1 3 Nordeste 15 Sudeste 0 -- -- 92
2021-02-28 02:00:00 3.6 9 Sudeste 15 Sudeste 0 -- -- 90
2021-02-28 01:00:00 3.5 2 Sudoeste 10 Sur 0 -- -- 90
2021-02-28 00:00:00 3.4 5 Nordeste 16 Nordeste 0 -- -- 89
2021-02-27 23:00:00 2.7 6 Nordeste 17 Este 0 -- -- 90
2021-02-27 22:00:00 3.4 10 Este 19 Este 0 -- -- 85
2021-02-27 21:00:00 4.1 2 Este 16 Nordeste 0 -- -- 81
2021-02-27 20:00:00 5.7 13 Nordeste 22 Nordeste 0 -- -- 72
2021-02-27 19:00:00 7.7 13 Nordeste 24 Este 0 -- -- 64
2021-02-27 18:00:00 10.3 15 Este 24 Nordeste 0 -- -- 63
2021-02-27 17:00:00 11.7 14 Nordeste 24 Nordeste 0 -- -- 62
2021-02-27 16:00:00 12 15 Nordeste 23 Este 0 -- -- 63
2021-02-27 15:00:00 11.6 7 Nordeste 19 Este 0 -- -- 69
2021-02-27 14:00:00 10.9 11 Nordeste 21 Este 0 -- -- 70
2021-02-27 13:00:00 10 15 Este 24 Este 0 -- -- 73
2021-02-27 12:00:00 9.2 15 Nordeste 22 Nordeste 0 -- -- 82
2021-02-27 11:00:00 7.9 9 Nordeste 16 Este 0 -- -- 90
2021-02-27 10:00:00 7.4 5 Nordeste 11 Nordeste 0 -- -- 90
2021-02-27 09:00:00 6.9 4 Nordeste 10 Este 0 -- -- 91
2021-02-27 08:00:00 6.8 7 Este 16 Este 0 -- -- 90
2021-02-27 07:00:00 6.7 12 Este 17 Este 0 -- -- 90
2021-02-27 06:00:00 6.7 6 Este 10 Este 0 -- -- 91
2021-02-27 05:00:00 6.7 4 Este 11 Este 0 -- -- 93
2021-02-27 04:00:00 6.8 8 Este 10 Este 0 -- -- 91
2021-02-27 03:00:00 6.9 8 Este 13 Este 0 -- -- 92
2021-02-27 02:00:00 7.2 10 Nordeste 16 Nordeste 0 -- -- 93
2021-02-27 01:00:00 7.5 6 Nordeste 15 Este 0 -- -- 95
2021-02-27 00:00:00 7.7 9 Este 15 Este 0 -- -- 95
2021-02-26 23:00:00 7.7 12 Este 17 Este 0 -- -- 95
2021-02-26 22:00:00 7.6 0 Calma 22 Este 0 -- -- 93
2021-02-26 21:00:00 7.7 19 Este 24 Este 0 -- -- 91
2021-02-26 20:00:00 7.7 15 Este 19 Este 0 -- -- 92
2021-02-26 19:00:00 8.7 10 Este 17 Nordeste 0 -- -- 90
2021-02-26 18:00:00 10.4 12 Este 18 Este 0 -- -- 84
2021-02-26 17:00:00 10.7 11 Nordeste 20 Este 0 -- -- 81
2021-02-26 16:00:00 11 17 Este 26 Este 0 -- -- 77
2021-02-26 15:00:00 10.8 15 Este 26 Este 0 -- -- 77
2021-02-26 14:00:00 10 13 Este 22 Este 0 -- -- 79
2021-02-26 13:00:00 10.1 12 Nordeste 22 Nordeste 0 -- -- 79
2021-02-26 12:00:00 10.3 15 Nordeste 23 Este 0 -- -- 80
2021-02-26 11:00:00 9 18 Este 23 Este 0 -- -- 86
2021-02-26 10:00:00 8 13 Nordeste 18 Nordeste 0 -- -- 90
2021-02-26 09:00:00 7.4 11 Este 15 Este 0 -- -- 95
2021-02-26 08:00:00 7 9 Este 15 Este 0 -- -- 97
2021-02-26 07:00:00 7.1 13 Este 22 Nordeste 0 -- -- 96
2021-02-26 06:00:00 7.3 11 Nordeste 19 Este 0 -- -- 95
2021-02-26 05:00:00 7.3 13 Este 18 Este 0 -- -- 97
2021-02-26 04:00:00 6.9 4 Este 7 Este 0 -- -- 99
2021-02-26 03:00:00 6.6 0 Calma 2 Oeste 0 -- -- 99
2021-02-26 02:00:00 6.5 0 Calma 2 Este 0 -- -- 99
2021-02-26 01:00:00 6.4 0 Calma 3 Oeste 0 -- -- 99
2021-02-26 00:00:00 6.1 0 Calma 4 Sudoeste 0 -- -- 99
2021-02-25 23:00:00 5.6 2 Oeste 9 Este 0 -- -- 98
2021-02-25 22:00:00 6.7 8 Sudeste 10 Sudeste 0 -- -- 94
2021-02-25 21:00:00 7.3 7 Sudeste 14 Sudeste 0 -- -- 93
2021-02-25 20:00:00 7.5 9 Este 11 Sudeste 0 -- -- 93
2021-02-25 19:00:00 8.2 3 Este 15 Este 0 -- -- 92
2021-02-25 18:00:00 8.8 11 Este 18 Este 0 -- -- 89
2021-02-25 17:00:00 8.7 12 Este 19 Este 0 -- -- 88
2021-02-25 16:00:00 8.3 9 Este 19 Este 0 -- -- 91
2021-02-25 15:00:00 7.6 9 Sudeste 21 Este 0 -- -- 95
2021-02-25 14:00:00 6.8 12 Este 21 Este 0 -- -- 98
2021-02-25 13:00:00 6.6 12 Este 26 Este 0 -- -- 99
2021-02-25 12:00:00 6.3 14 Sudeste 26 Sudeste 0 -- -- 100
2021-02-25 11:00:00 6.1 14 Este 23 Este 0 -- -- 100
2021-02-25 10:00:00 5.8 16 Este 27 Este 0 -- -- 100
2021-02-25 09:00:00 5.6 13 Este 22 Sudeste 0 -- -- 100
2021-02-25 08:00:00 5.7 13 Este 20 Sudeste 0 -- -- 100
2021-02-25 07:00:00 5.8 10 Este 20 Este 0 -- -- 100
2021-02-25 06:00:00 5.9 13 Sudeste 23 Sudeste 0 -- -- 100
2021-02-25 05:00:00 6.3 14 Este 29 Sudeste 0 -- -- 100
2021-02-25 04:00:00 6.2 6 Sudeste 18 Sudeste 0 -- -- 100
2021-02-25 03:00:00 5.2 7 Este 19 Sudeste 0 -- -- 98
2021-02-25 02:00:00 6.6 6 Noroeste 17 Sudeste 0 -- -- 88
2021-02-25 01:00:00 7.5 4 Este 18 Sudeste 0 -- -- 86
2021-02-25 00:00:00 9.6 12 Sudeste 19 Sudeste 0 -- -- 71
2021-02-24 23:00:00 6.1 0 Calma 6 Sudoeste 0 -- -- 86
2021-02-24 22:00:00 8.7 4 Sudoeste 9 Sur 0 -- -- 77
2021-02-24 21:00:00 10.1 6 Sur 17 Sur 0 -- -- 71
2021-02-24 20:00:00 10.3 8 Sudoeste 18 Sur 0 -- -- 69
2021-02-24 19:00:00 13.6 16 Sudoeste 32 Sur 0 -- -- 52
2021-02-24 18:00:00 15.8 18 Sudoeste 43 Sudoeste 0 -- -- 48
2021-02-24 17:00:00 16.3 14 Sur 28 Sudeste 0 -- -- 52
2021-02-24 16:00:00 14.1 21 Este 31 Sudeste 0 -- -- 82
2021-02-24 15:00:00 12.8 19 Este 30 Sudeste 0 -- -- 86
2021-02-24 14:00:00 10 17 Sudeste 28 Sudeste 0 -- -- 91
2021-02-24 13:00:00 8.9 12 Sudeste 22 Este 0 -- -- 93
2021-02-24 12:00:00 7.4 12 Sudeste 18 Sudeste 0 -- -- 94
2021-02-24 11:00:00 6.7 10 Sudeste 18 Este 0 -- -- 99
2021-02-24 10:00:00 4.4 13 Sudeste 20 Sudeste 0 -- -- 100
2021-02-24 09:00:00 1.4 3 Oeste 9 Oeste 0 -- -- 100
2021-02-24 08:00:00 0.1 0 Calma 5 Oeste 0 -- -- 100
2021-02-24 07:00:00 0.4 3 Oeste 9 Sudeste 0 -- -- 100
2021-02-24 06:00:00 1.1 2 Sudoeste 9 Sudeste 0 -- -- 100
2021-02-24 05:00:00 0.7 0 Calma 6 Oeste 0 -- -- 98
2021-02-24 04:00:00 1.1 0 Calma 5 Oeste 0 -- -- 96
2021-02-24 03:00:00 2.1 0 Calma 6 Oeste 0 -- -- 95
2021-02-24 02:00:00 3.3 0 Calma 15 Sudeste 0 -- -- 90
2021-02-24 01:00:00 5.4 10 Sur 18 Sudeste 0 -- -- 82
2021-02-24 00:00:00 4.8 9 Sudoeste 13 Sudoeste 0 -- -- 87
2021-02-23 23:00:00 5.8 10 Sur 15 Sudoeste 0 -- -- 83
2021-02-23 22:00:00 6.3 10 Sur 14 Sur 0 -- -- 81
2021-02-23 21:00:00 7.3 7 Sur 15 Sur 0 -- -- 80
2021-02-23 20:00:00 9.1 10 Sudeste 13 Sudeste 0 -- -- 79
2021-02-23 19:00:00 11.1 5 Sudoeste 22 Oeste 0 -- -- 69
2021-02-23 18:00:00 13.4 14 Sudoeste 30 Sudoeste 0 -- -- 61
2021-02-23 17:00:00 13.6 19 Sudoeste 35 Sudoeste 0 -- -- 56
2021-02-23 16:00:00 13.8 21 Sudoeste 38 Sudoeste 0 -- -- 58
2021-02-23 15:00:00 13.2 21 Sudoeste 45 Sudoeste 0 -- -- 62
2021-02-23 14:00:00 11.7 5 Sudoeste 14 Este 0 -- -- 75
2021-02-23 13:00:00 8.7 7 Sudeste 13 Este 0 -- -- 86
2021-02-23 12:00:00 6.3 8 Nordeste 12 Nordeste 0 -- -- 93
2021-02-23 11:00:00 4.9 4 Nordeste 12 Sudeste 0 -- -- 92
2021-02-23 10:00:00 2.7 7 Sudeste 13 Sudeste 0 -- -- 96
2021-02-23 09:00:00 1.1 4 Sur 9 Sudeste 0 -- -- 99
2021-02-23 08:00:00 0.2 2 Sudoeste 6 Oeste 0 -- -- 97
2021-02-23 07:00:00 0.4 3 Oeste 7 Oeste 0 -- -- 96
2021-02-23 06:00:00 1.2 0 Calma 8 Sudoeste 0 -- -- 93
2021-02-23 05:00:00 2.2 7 Sur 17 Sur 0 -- -- 92
2021-02-23 04:00:00 2.1 8 Sur 13 Sudoeste 0 -- -- 94
2021-02-23 03:00:00 2.1 6 Sur 15 Sur 0 -- -- 92
2021-02-23 02:00:00 1.9 8 Sur 15 Sur 0 -- -- 94
2021-02-23 01:00:00 1.6 9 Sur 16 Sur 0 -- -- 96
2021-02-23 00:00:00 1.6 7 Sur 10 Sur 0 -- -- 97
2021-02-22 23:00:00 2.5 6 Sur 10 Sur 0 -- -- 95
2021-02-22 22:00:00 3.7 8 Sur 14 Sudeste 0 -- -- 92
2021-02-22 21:00:00 4 5 Sur 14 Sudeste 0 -- -- 92
2021-02-22 20:00:00 5.4 9 Sudeste 15 Sudeste 0 -- -- 90
2021-02-22 19:00:00 6.3 6 Sur 12 Sudeste 0 -- -- 90
2021-02-22 18:00:00 6.6 4 Sur 8 Sur 0 -- -- 90
2021-02-22 17:00:00 6.7 0 Calma 5 Norte 0 -- -- 84
2021-02-22 16:00:00 6.4 2 Sudeste 10 Sur 0 -- -- 88
2021-02-22 15:00:00 6.3 4 Sur 12 Sur 0.2 -- -- 92
2021-02-22 14:00:00 5.2 8 Sur 12 Sur 0 -- -- 96
2021-02-22 13:00:00 4.3 9 Sur 14 Sur 0 -- -- 97
2021-02-22 12:00:00 3.6 4 Sur 8 Sur 0.8 -- -- 100
2021-02-22 11:00:00 2.6 5 Sur 16 Sur 1.2 -- -- 99
2021-02-22 10:00:00 1.8 12 Sur 17 Sur 1.2 -- -- 99
2021-02-22 09:00:00 1.3 9 Sur 14 Sur 1 -- -- 99
2021-02-22 08:00:00 0.8 8 Sur 13 Sur 1.8 -- -- 100
2021-02-22 07:00:00 0.8 6 Sudoeste 8 Sur 1.4 -- -- 100
2021-02-22 06:00:00 0.5 4 Sudoeste 8 Sudoeste 1.4 -- -- 100
2021-02-22 05:00:00 0.6 4 Sudoeste 5 Sudoeste 0.2 -- -- 99
2021-02-22 04:00:00 0.9 3 Oeste 10 Noroeste 2.2 -- -- 99
2021-02-22 03:00:00 2 6 Noroeste 17 Noroeste 3.4 -- -- 98
2021-02-22 02:00:00 2.9 9 Noroeste 22 Noroeste 1.4 -- -- 96
2021-02-22 01:00:00 3.6 13 Norte 30 Noroeste 3 -- -- 97
2021-02-22 00:00:00 4.4 17 Noroeste 35 Noroeste 3 -- -- 96
2021-02-21 23:00:00 8.3 9 Este 25 Sudeste 1.8 -- -- 96
2021-02-21 22:00:00 8.4 18 Este 27 Este 0.6 -- -- 96
2021-02-21 21:00:00 8.5 15 Este 27 Sudeste 3.4 -- -- 95
2021-02-21 20:00:00 8.5 14 Sudeste 35 Este 1.8 -- -- 96
2021-02-21 19:00:00 8.4 23 Este 39 Este 0 -- -- 94
2021-02-21 18:00:00 8.7 28 Este 42 Este 0 -- -- 89
2021-02-21 17:00:00 8.6 18 Este 31 Este 0 -- -- 87
2021-02-21 16:00:00 8.6 17 Este 34 Este 0 -- -- 85
2021-02-21 15:00:00 8.9 28 Este 44 Este 0 -- -- 84
2021-02-21 14:00:00 9 28 Este 47 Este 0 -- -- 83
2021-02-21 13:00:00 8.7 30 Este 47 Este 0 -- -- 82
2021-02-21 12:00:00 8.1 24 Sudeste 41 Este 0 -- -- 83
2021-02-21 11:00:00 7.1 23 Este 34 Sudeste 0 -- -- 87
2021-02-21 10:00:00 6.2 15 Sudeste 48 Este 0 -- -- 91
2021-02-21 09:00:00 6 33 Este 51 Este 0 -- -- 92
2021-02-21 08:00:00 6 22 Sudeste 43 Sudeste 0 -- -- 90
2021-02-21 07:00:00 6.2 22 Sudeste 46 Este 0 -- -- 89
2021-02-21 06:00:00 6.5 10 Sur 39 Sudeste 0 -- -- 86
2021-02-21 05:00:00 6.7 13 Sudeste 34 Este 0 -- -- 85
2021-02-21 04:00:00 7 17 Sudeste 44 Sudeste 0 -- -- 84
2021-02-21 03:00:00 7.6 28 Sudeste 43 Sudeste 0 -- -- 80
2021-02-21 02:00:00 8.4 22 Sudeste 39 Sudeste 0 -- -- 76
2021-02-21 01:00:00 10.9 19 Sudeste 29 Sudeste 0 -- -- 62
2021-02-21 00:00:00 14.5 13 Sur 41 Sur 0 -- -- 34
2021-02-20 23:00:00 14.6 18 Sur 33 Sur 0 -- -- 32
2021-02-20 22:00:00 13.3 7 Sur 26 Sur 0 -- -- 37
2021-02-20 21:00:00 10.9 4 Este 17 Sur 0 -- -- 47
2021-02-20 20:00:00 13.2 8 Sur 23 Sudeste 0 -- -- 42
2021-02-20 19:00:00 13.2 12 Sur 22 Sudoeste 0 -- -- 41
2021-02-20 18:00:00 14.8 21 Sudoeste 40 Sur 0 -- -- 36
2021-02-20 17:00:00 17.4 24 Sur 40 Sur 0 -- -- 31
2021-02-20 16:00:00 17 21 Sudoeste 40 Sudoeste 0 -- -- 34
2021-02-20 15:00:00 16 30 Sudoeste 50 Sudoeste 0 -- -- 34
2021-02-20 14:00:00 16.8 33 Sudoeste 59 Sudoeste 0 -- -- 30
2021-02-20 13:00:00 15.7 27 Sur 46 Sudoeste 0 -- -- 40
2021-02-20 12:00:00 15.7 28 Sur 49 Sudoeste 0 -- -- 40
2021-02-20 11:00:00 15.2 29 Sudoeste 48 Sur 0 -- -- 39
2021-02-20 10:00:00 10.8 15 Sudeste 27 Sur 0 -- -- 57
2021-02-20 09:00:00 11.2 9 Sur 24 Sur 0 -- -- 48
2021-02-20 08:00:00 11 13 Sur 29 Sur 0 -- -- 47
2021-02-20 07:00:00 6.6 0 Calma 11 Sudeste 0 -- -- 66
2021-02-20 06:00:00 8.2 8 Sur 18 Sudeste 0 -- -- 59
2021-02-20 05:00:00 8.5 9 Sudeste 24 Sudeste 0 -- -- 60
2021-02-20 04:00:00 7.3 15 Sudeste 22 Sudeste 0 -- -- 68
2021-02-20 03:00:00 3.5 4 Sudoeste 6 Oeste 0 -- -- 87
2021-02-20 02:00:00 4.4 0 Calma 6 Oeste 0 -- -- 83
2021-02-20 01:00:00 4 0 Calma 4 Oeste 0 -- -- 83
2021-02-20 00:00:00 5.3 3 Sudoeste 5 Oeste 0 -- -- 79
2021-02-19 23:00:00 7.3 4 Sudoeste 12 Sudeste 0 -- -- 73
2021-02-19 22:00:00 8 3 Sur 9 Sur 0 -- -- 71
2021-02-19 21:00:00 9 0 Calma 9 Sudoeste 0 -- -- 69
2021-02-19 20:00:00 11.1 4 Sudoeste 13 Sudoeste 0 -- -- 62
2021-02-19 19:00:00 13.6 12 Sudoeste 21 Oeste 0 -- -- 50
2021-02-19 18:00:00 15.2 14 Sudoeste 42 Sudoeste 0 -- -- 43
2021-02-19 17:00:00 16.9 27 Sudoeste 45 Sudoeste 0 -- -- 38
2021-02-19 16:00:00 16.6 26 Sudoeste 47 Oeste 0 -- -- 40
2021-02-19 15:00:00 16 30 Sudoeste 45 Sudoeste 0 -- -- 39
2021-02-19 14:00:00 15.5 27 Sudoeste 50 Sudoeste 0 -- -- 40
2021-02-19 13:00:00 14.5 34 Sudoeste 59 Sudoeste 0 -- -- 41
2021-02-19 12:00:00 12.5 33 Sudoeste 46 Sudoeste 0 -- -- 56
2021-02-19 11:00:00 11.1 25 Sudoeste 40 Sudoeste 0 -- -- 64
2021-02-19 10:00:00 10.3 21 Sudoeste 33 Oeste 0 -- -- 68
2021-02-19 09:00:00 8.9 16 Sudoeste 28 Sudoeste 0 -- -- 71
2021-02-19 08:00:00 8.4 17 Sudoeste 31 Sudoeste 0 -- -- 70
2021-02-19 07:00:00 8.6 18 Sudoeste 35 Sudoeste 0 -- -- 70
2021-02-19 06:00:00 8.8 22 Sudoeste 37 Sudoeste 0 -- -- 71
2021-02-19 05:00:00 9 21 Sudoeste 38 Sudoeste 0 -- -- 74
2021-02-19 04:00:00 9.1 18 Sudoeste 31 Sudoeste 0 -- -- 73
2021-02-19 03:00:00 9.6 19 Sudoeste 29 Sudoeste 0 -- -- 75
2021-02-19 02:00:00 9.4 14 Sudoeste 31 Sudoeste 0 -- -- 82
2021-02-19 01:00:00 9.3 15 Sudoeste 37 Sudoeste 0 -- -- 88
2021-02-19 00:00:00 9.7 24 Sudoeste 36 Sudoeste 0 -- -- 84
2021-02-18 23:00:00 9.5 22 Sudoeste 35 Sudoeste 0 -- -- 85
2021-02-18 22:00:00 9.5 15 Sudoeste 25 Sudoeste 0 -- -- 85
2021-02-18 21:00:00 10 13 Oeste 24 Sudoeste 0.2 -- -- 85
2021-02-18 20:00:00 10.7 14 Sudoeste 27 Sudoeste 0 -- -- 80
2021-02-18 19:00:00 10.7 13 Sudoeste 42 Oeste 0.2 -- -- 79
2021-02-18 18:00:00 12.5 18 Sudoeste 40 Sudoeste 0 -- -- 65
2021-02-18 17:00:00 13.3 25 Sudoeste 52 Sudoeste 0 -- -- 62
2021-02-18 16:00:00 13.7 29 Sudoeste 47 Sudoeste 0 -- -- 61
2021-02-18 15:00:00 12.7 23 Sudoeste 50 Sudoeste 0 -- -- 62
2021-02-18 14:00:00 12.8 32 Sudoeste 64 Sudoeste 0 -- -- 62
2021-02-18 13:00:00 13.8 44 Sudoeste 77 Sudoeste 0 -- -- 53
2021-02-18 12:00:00 13.1 37 Sudoeste 68 Sudoeste 0 -- -- 50
2021-02-18 11:00:00 13.1 39 Sudoeste 67 Sudoeste 0 -- -- 46
2021-02-18 10:00:00 12.1 49 Sudoeste 77 Sudoeste 0 -- -- 49
2021-02-18 09:00:00 9.7 33 Sudoeste 64 Sudoeste 0 -- -- 62
2021-02-18 08:00:00 9.2 25 Sudoeste 48 Sudoeste 0 -- -- 69
2021-02-18 07:00:00 8.7 22 Sudoeste 52 Sudoeste 0 -- -- 71
2021-02-18 06:00:00 9.3 31 Sudoeste 46 Sudoeste 0 -- -- 69
2021-02-18 05:00:00 9.6 23 Sudoeste 42 Sudoeste 0 -- -- 68
2021-02-18 04:00:00 8.6 18 Sudoeste 28 Sudoeste 0 -- -- 72
2021-02-18 03:00:00 7.5 8 Sudoeste 18 Sudoeste 0 -- -- 77
2021-02-18 02:00:00 5.4 4 Sudoeste 7 Sudoeste 0 -- -- 91
2021-02-18 01:00:00 5.4 3 Este 21 Sudeste 0 -- -- 96
2021-02-18 00:00:00 7.1 17 Sudeste 23 Sudeste 0 -- -- 95
2021-02-17 23:00:00 7.8 14 Sudeste 22 Sudeste 0 -- -- 92
2021-02-17 22:00:00 8 4 Noroeste 16 Sudeste 0 -- -- 88
2021-02-17 21:00:00 9.7 8 Sur 15 Sur 0 -- -- 82
2021-02-17 20:00:00 10.7 8 Sur 13 Sur 0 -- -- 81
2021-02-17 19:00:00 11 8 Sur 24 Sudoeste 0 -- -- 83
2021-02-17 18:00:00 12.6 18 Sudoeste 37 Sudoeste 0 -- -- 75
2021-02-17 17:00:00 13.1 23 Sudoeste 48 Sudoeste 0 -- -- 71
2021-02-17 16:00:00 13.4 21 Sudoeste 39 Sudoeste 0 -- -- 71
2021-02-17 15:00:00 12.8 21 Sudoeste 39 Sudoeste 0 -- -- 73
2021-02-17 14:00:00 13.2 22 Sudoeste 38 Sudoeste 0 -- -- 73
2021-02-17 13:00:00 12.5 25 Sudoeste 39 Sudoeste 0 -- -- 73
2021-02-17 12:00:00 11.9 19 Sudoeste 32 Sudoeste 0 -- -- 77
2021-02-17 11:00:00 10.7 13 Sudoeste 28 Sudoeste 0 -- -- 84
2021-02-17 10:00:00 8.1 3 Sur 8 Sudoeste 0 -- -- 96
2021-02-17 09:00:00 5.5 0 Calma 4 Sudoeste 0 -- -- 99
2021-02-17 08:00:00 6.1 4 Sudoeste 20 Sudoeste 0 -- -- 92
2021-02-17 07:00:00 7.2 8 Sudoeste 17 Sudoeste 0 -- -- 93
2021-02-17 06:00:00 7.8 12 Sudoeste 19 Sudoeste 0 -- -- 92
2021-02-17 05:00:00 8.7 13 Sudoeste 18 Sudoeste 0 -- -- 92
2021-02-17 04:00:00 8.2 9 Sudoeste 18 Sudoeste 0 -- -- 94
2021-02-17 03:00:00 7.6 12 Sudoeste 20 Sudoeste 0 -- -- 94
2021-02-17 02:00:00 8.2 12 Sudoeste 24 Sudoeste 0 -- -- 92
2021-02-17 01:00:00 7.9 11 Sudoeste 21 Sudoeste 0 -- -- 93
2021-02-17 00:00:00 8.5 12 Sudoeste 20 Sudoeste 0 -- -- 91
2021-02-16 23:00:00 8.7 12 Sudoeste 21 Sudoeste 0 -- -- 91
2021-02-16 22:00:00 9.1 12 Sudoeste 17 Sudoeste 0 -- -- 89
2021-02-16 21:00:00 10.2 14 Sudoeste 34 Sudoeste 0 -- -- 86
2021-02-16 20:00:00 10.9 11 Sudoeste 28 Oeste 0 -- -- 81
2021-02-16 19:00:00 11.4 13 Sudoeste 35 Sudoeste 0 -- -- 75
2021-02-16 18:00:00 12.4 23 Sudoeste 36 Sudoeste 0 -- -- 71
2021-02-16 17:00:00 12.5 22 Oeste 37 Sudoeste 0 -- -- 70
2021-02-16 16:00:00 13.2 23 Sudoeste 45 Sudoeste 0 -- -- 66
2021-02-16 15:00:00 13.5 24 Sudoeste 49 Sudoeste 0 -- -- 66
2021-02-16 14:00:00 14.3 31 Sudoeste 46 Sudoeste 0 -- -- 62
2021-02-16 13:00:00 12.9 26 Sudoeste 43 Sudoeste 0 -- -- 67
2021-02-16 12:00:00 11.5 31 Sudoeste 59 Oeste 0 -- -- 68
2021-02-16 11:00:00 7.1 21 Sudeste 32 Sudeste 0 -- -- 95
2021-02-16 10:00:00 5.6 16 Sudeste 33 Sudeste 0 -- -- 100
2021-02-16 09:00:00 4.7 23 Sudeste 36 Sudeste 0 -- -- 100
2021-02-16 08:00:00 4.6 20 Sudeste 34 Sudeste 0 -- -- 100
2021-02-16 07:00:00 4.8 17 Sudeste 29 Sudeste 0 -- -- 100
2021-02-16 06:00:00 5 16 Sudeste 26 Sudeste 0 -- -- 100
2021-02-16 05:00:00 5.2 11 Sudeste 22 Sudeste 0 -- -- 100
2021-02-16 04:00:00 5.4 10 Sudeste 18 Sudeste 0 -- -- 100
2021-02-16 03:00:00 5.4 9 Sudeste 19 Sudeste 0 -- -- 100
2021-02-16 02:00:00 5.4 9 Sudeste 22 Sudeste 0 -- -- 100
2021-02-16 01:00:00 5.3 10 Sudeste 20 Sudeste 0 -- -- 100
2021-02-16 00:00:00 5.6 10 Sudeste 23 Sudeste 0 -- -- 100
2021-02-15 23:00:00 5.6 10 Sudeste 19 Sudeste 0 -- -- 100
2021-02-15 22:00:00 5.9 12 Sudeste 25 Sudeste 0 -- -- 100
2021-02-15 21:00:00 6.1 14 Sudeste 27 Sudeste 0 -- -- 99
2021-02-15 20:00:00 6 14 Sudeste 27 Sudeste 0 -- -- 99
2021-02-15 19:00:00 5.6 12 Sudeste 23 Sudeste 0 -- -- 100
2021-02-15 18:00:00 5.5 15 Sudeste 26 Este 0 -- -- 100
2021-02-15 17:00:00 5.9 14 Sudeste 30 Este 0 -- -- 98
2021-02-15 16:00:00 6.2 14 Sudeste 27 Este 0 -- -- 97
2021-02-15 15:00:00 6 19 Este 28 Este 0 -- -- 97
2021-02-15 14:00:00 5.9 17 Sudeste 24 Sudeste 0 -- -- 99
2021-02-15 13:00:00 5.8 12 Sudeste 22 Este 0 -- -- 100
2021-02-15 12:00:00 5.3 13 Sudeste 26 Sudeste 0 -- -- 100
2021-02-15 11:00:00 4.7 18 Este 26 Sudeste 0 -- -- 100
2021-02-15 10:00:00 4.6 16 Este 25 Este 0 -- -- 100
2021-02-15 09:00:00 4.4 11 Sudeste 22 Sudeste 0 -- -- 100
2021-02-15 08:00:00 4.4 12 Sudeste 23 Sudeste 0 -- -- 100
2021-02-15 07:00:00 4.5 10 Sudeste 20 Este 0 -- -- 100
2021-02-15 06:00:00 4.7 9 Sudeste 18 Sudeste 0 -- -- 100
2021-02-15 05:00:00 4.8 10 Sudeste 23 Sudeste 0 -- -- 100
2021-02-15 04:00:00 4.9 12 Sudeste 25 Sudeste 0 -- -- 100
2021-02-15 03:00:00 5.2 16 Sudeste 26 Sudeste 0 -- -- 100
2021-02-15 02:00:00 5.5 12 Sudeste 27 Este 0 -- -- 100
2021-02-15 01:00:00 5.9 14 Sudeste 26 Sudeste 0 -- -- 100
2021-02-15 00:00:00 6.4 13 Sudeste 29 Sudeste 0 -- -- 99
2021-02-14 23:00:00 6.7 15 Sudeste 35 Sudeste 0 -- -- 98
2021-02-14 22:00:00 6.9 19 Sudeste 33 Este 0 -- -- 98
2021-02-14 21:00:00 7.1 18 Sudeste 37 Sudeste 0 -- -- 96
2021-02-14 20:00:00 7.6 17 Sudeste 32 Sudeste 0 -- -- 90
2021-02-14 19:00:00 8.2 17 Sudeste 30 Este 0 -- -- 89
2021-02-14 18:00:00 9.1 18 Sudeste 31 Sudeste 0 -- -- 87
2021-02-14 17:00:00 10.1 19 Sudeste 32 Sudeste 0 -- -- 84
2021-02-14 16:00:00 10.4 16 Sudeste 32 Sudeste 0 -- -- 85
2021-02-14 15:00:00 10 21 Sudeste 33 Sudeste 0 -- -- 85
2021-02-14 14:00:00 10.6 23 Sudeste 31 Sudeste 0 -- -- 82
2021-02-14 13:00:00 10 21 Sudeste 31 Sudeste 0 -- -- 86
2021-02-14 12:00:00 9.4 15 Sudeste 23 Sudeste 0 -- -- 85
2021-02-14 11:00:00 8.4 12 Sudeste 20 Este 0 -- -- 86
2021-02-14 10:00:00 5.9 10 Este 15 Este 0 -- -- 100
2021-02-14 09:00:00 0.5 0 Calma 2 Oeste 0 -- -- 100
2021-02-14 08:00:00 -0.1 0 Calma 3 Sudoeste 0 -- -- 100
2021-02-14 07:00:00 0.3 0 Calma 2 Oeste 0 -- -- 100
2021-02-14 06:00:00 0.7 0 Calma 3 Sudoeste 0 -- -- 100
2021-02-14 05:00:00 1 0 Calma 6 Sudeste 0 -- -- 99
2021-02-14 04:00:00 1.2 0 Calma 2 Sudoeste 0 -- -- 99
2021-02-14 03:00:00 2.1 0 Calma 3 Oeste 0 -- -- 97
2021-02-14 02:00:00 3.4 0 Calma 14 Sur 0 -- -- 95
2021-02-14 01:00:00 4.7 8 Sur 13 Sudeste 0 -- -- 93
2021-02-14 00:00:00 5.2 7 Sur 16 Sur 0 -- -- 92
2021-02-13 23:00:00 5.8 9 Sur 14 Sur 0 -- -- 90
2021-02-13 22:00:00 6.2 10 Sur 14 Sur 0 -- -- 90
2021-02-13 21:00:00 6.9 10 Sur 14 Sur 0 -- -- 88
2021-02-13 20:00:00 7.8 8 Sur 12 Sur 0 -- -- 86
2021-02-13 19:00:00 9.6 6 Sudoeste 15 Oeste 0 -- -- 79
2021-02-13 18:00:00 10.8 5 Noroeste 9 Noroeste 0 -- -- 76
2021-02-13 17:00:00 10.9 4 Norte 17 Oeste 0 -- -- 70
2021-02-13 16:00:00 11.3 10 Oeste 15 Sudoeste 0 -- -- 71
2021-02-13 15:00:00 10 8 Norte 18 Sudoeste 0 -- -- 76
2021-02-13 14:00:00 9.4 13 Sudoeste 20 Sudoeste 0 -- -- 81
2021-02-13 13:00:00 8 10 Oeste 24 Oeste 0 -- -- 86
2021-02-13 08:00:00 -- -- -- -- -- -- -- -- --
2021-02-13 07:00:00 -- -- -- -- -- -- -- -- --
2021-02-13 06:00:00 -- -- -- -- -- -- -- -- --
2021-02-13 05:00:00 -- -- -- -- -- -- -- -- --
2021-02-13 04:00:00 2.9 6 Sur 12 Sur 0 -- -- 98
2021-02-13 03:00:00 3.3 9 Sur 17 Sur 0 -- -- 97
2021-02-13 02:00:00 3.9 6 Sur 14 Sur 0 -- -- 96
2021-02-13 01:00:00 4.4 8 Sur 17 Sur 0 -- -- 95
2021-02-13 00:00:00 4.7 10 Sur 18 Sur 0 -- -- 94
2021-02-12 23:00:00 5 11 Sur 14 Sur 0 -- -- 93
2021-02-12 22:00:00 5.4 5 Sudoeste 9 Sudoeste 0 -- -- 93
2021-02-12 21:00:00 5.9 0 Calma 8 Noroeste 0 -- -- 90
2021-02-12 20:00:00 7.4 5 Sudoeste 23 Noroeste 0 -- -- 86
2021-02-12 19:00:00 8.3 10 Noroeste 22 Norte 0 -- -- 84
2021-02-12 18:00:00 9.5 13 Norte 29 Noroeste 0 -- -- 82
2021-02-12 17:00:00 10.4 17 Noroeste 32 Noroeste 0 -- -- 78
2021-02-12 16:00:00 10.7 18 Noroeste 33 Noroeste 0 -- -- 80
2021-02-12 15:00:00 10.2 16 Oeste 25 Noroeste 0.2 -- -- 83
2021-02-12 14:00:00 10.5 10 Oeste 26 Oeste 0 -- -- 83
2021-02-12 13:00:00 10.4 14 Oeste 29 Oeste 0 -- -- 86
2021-02-12 12:00:00 9.4 13 Oeste 21 Oeste 0.4 -- -- 90
2021-02-12 11:00:00 8.6 13 Oeste 32 Oeste 1.6 -- -- 91
2021-02-12 10:00:00 8.8 12 Oeste 21 Oeste 0.2 -- -- 89
2021-02-12 09:00:00 8.7 12 Sudoeste 30 Sudoeste 0.4 -- -- 87
2021-02-12 08:00:00 9.5 18 Sudoeste 31 Sudoeste 0 -- -- 88
2021-02-12 07:00:00 9.5 19 Sudoeste 34 Sudoeste 0 -- -- 91
2021-02-12 06:00:00 9.3 21 Sudoeste 37 Sudoeste 0 -- -- 93
2021-02-12 05:00:00 9.6 26 Sudoeste 48 Sudoeste 0.6 -- -- 92
2021-02-12 04:00:00 10.1 32 Sudoeste 44 Sudoeste 0.2 -- -- 89
2021-02-12 03:00:00 10.7 13 Sudoeste 24 Sudoeste 0 -- -- 85
2021-02-12 02:00:00 9.8 7 Sur 22 Oeste 0 -- -- 90
2021-02-12 01:00:00 10.7 10 Sudoeste 28 Sudoeste 0 -- -- 86
2021-02-12 00:00:00 11.3 13 Sudoeste 27 Sudoeste 0 -- -- 85
2021-02-11 23:00:00 11.2 13 Sudoeste 21 Sudoeste 0 -- -- 90
2021-02-11 22:00:00 8.5 5 Sudoeste 8 Sudoeste 0 -- -- 97
2021-02-11 21:00:00 9.3 0 Calma 17 Sudoeste 0 -- -- 94
2021-02-11 20:00:00 10.8 10 Sur 17 Sudoeste 0 -- -- 92
2021-02-11 19:00:00 11.7 13 Sudoeste 22 Sudoeste 0 -- -- 89
2021-02-11 18:00:00 12.8 14 Sudoeste 26 Sudoeste 0 -- -- 84
2021-02-11 17:00:00 13.8 14 Sudoeste 31 Oeste 0 -- -- 78
2021-02-11 16:00:00 13.8 23 Oeste 41 Oeste 0 -- -- 72
2021-02-11 15:00:00 12.8 19 Oeste 36 Sudoeste 0 -- -- 78
2021-02-11 14:00:00 12.2 17 Oeste 39 Oeste 0 -- -- 85
2021-02-11 13:00:00 11.1 15 Sudoeste 30 Sudoeste 0 -- -- 87
2021-02-11 12:00:00 9.5 5 Norte 11 Norte 0 -- -- 94
2021-02-11 11:00:00 8.1 2 Norte 9 Noroeste 0 -- -- 98
2021-02-11 10:00:00 7.8 4 Oeste 27 Sudoeste 0 -- -- 93
2021-02-11 09:00:00 7.8 15 Sudoeste 24 Oeste 0 -- -- 94
2021-02-11 08:00:00 7.4 13 Oeste 25 Sudoeste 0 -- -- 93
2021-02-11 07:00:00 6.8 10 Oeste 24 Oeste 0 -- -- 94
2021-02-11 06:00:00 6.1 15 Sudoeste 29 Sudoeste 0 -- -- 94
2021-02-11 05:00:00 6.1 20 Sudoeste 29 Sudoeste 0 -- -- 90
2021-02-11 04:00:00 6.7 17 Sudoeste 25 Sudoeste 0 -- -- 80
2021-02-11 03:00:00 6.7 11 Sudoeste 22 Sudoeste 0 -- -- 78
2021-02-11 02:00:00 6.6 15 Sudoeste 28 Sudoeste 0 -- -- 77
2021-02-11 01:00:00 5.9 10 Sudoeste 22 Sudoeste 0 -- -- 80
2021-02-11 00:00:00 5.9 15 Sudoeste 24 Sudoeste 0 -- -- 80
2021-02-10 23:00:00 6.1 12 Sudoeste 23 Sudoeste 0 -- -- 80
2021-02-10 22:00:00 6.6 14 Sudoeste 24 Sudoeste 0 -- -- 79
2021-02-10 21:00:00 6.5 13 Sudoeste 21 Sudoeste 0 -- -- 81
2021-02-10 20:00:00 6.7 4 Sudoeste 19 Oeste 0 -- -- 79
2021-02-10 19:00:00 7.4 8 Oeste 27 Oeste 0 -- -- 76
2021-02-10 18:00:00 9.2 16 Oeste 36 Oeste 0 -- -- 67
2021-02-10 17:00:00 9.5 21 Oeste 42 Oeste 0 -- -- 68
2021-02-10 16:00:00 9.8 27 Oeste 39 Sudoeste 0 -- -- 66
2021-02-10 15:00:00 9.1 27 Sudoeste 41 Oeste 0 -- -- 66
2021-02-10 14:00:00 9.4 27 Oeste 43 Oeste 0 -- -- 67
2021-02-10 13:00:00 8.2 22 Oeste 38 Sudoeste 0 -- -- 74
2021-02-10 12:00:00 7.1 17 Oeste 38 Sudoeste 0 -- -- 80
2021-02-10 11:00:00 5.2 27 Sudoeste 37 Sudoeste 0 -- -- 84
2021-02-10 10:00:00 3.9 19 Sudoeste 30 Sudoeste 0 -- -- 90
2021-02-10 09:00:00 3.4 11 Sudoeste 22 Sudoeste 0 -- -- 91
2021-02-10 08:00:00 3.3 4 Sur 15 Sudoeste 0 -- -- 89
2021-02-10 07:00:00 3.5 8 Norte 45 Oeste 0 -- -- 87
2021-02-10 06:00:00 4.6 24 Oeste 47 Sudoeste 0 -- -- 86
2021-02-10 05:00:00 3.9 13 Sudoeste 42 Sudoeste 1.2 -- -- 93
2021-02-10 04:00:00 5 14 Sudoeste 24 Sudoeste 0.4 -- -- 94
2021-02-10 03:00:00 4.7 9 Sudoeste 21 Sudoeste 0 -- -- 91
2021-02-10 02:00:00 4.6 13 Sudoeste 33 Sudoeste 0 -- -- 90
2021-02-10 01:00:00 5.1 16 Sudoeste 37 Sudoeste 0 -- -- 89
2021-02-10 00:00:00 4.6 24 Sudoeste 42 Sudoeste 0 -- -- 88
2021-02-09 23:00:00 4.9 31 Sudoeste 54 Sudoeste 0 -- -- 86
2021-02-09 22:00:00 4.4 33 Sudoeste 54 Sudoeste 0 -- -- 90
2021-02-09 21:00:00 4.7 23 Sudoeste 51 Sudoeste 0 -- -- 90
2021-02-09 20:00:00 5.5 31 Sudoeste 44 Sudoeste 0 -- -- 86
2021-02-09 19:00:00 5.5 27 Sudoeste 41 Sudoeste 0 -- -- 87
2021-02-09 18:00:00 5.7 22 Sudoeste 51 Sudoeste 0 -- -- 87
2021-02-09 17:00:00 5.9 34 Sudoeste 54 Sudoeste 0 -- -- 85
2021-02-09 16:00:00 5.9 28 Sudoeste 47 Sudoeste 0 -- -- 92
2021-02-09 15:00:00 4.9 22 Sudoeste 42 Oeste 0.4 -- -- 92
2021-02-09 14:00:00 5.3 29 Sudoeste 58 Oeste 3 -- -- 93
2021-02-09 13:00:00 7.3 32 Sudoeste 67 Sudoeste 2.2 -- -- 91
2021-02-09 12:00:00 8 48 Sudoeste 89 Sudoeste 0.2 -- -- 87
2021-02-09 11:00:00 8.3 55 Sudoeste 81 Sudoeste 0 -- -- 83
2021-02-09 10:00:00 8 42 Sudoeste 69 Sudoeste 0 -- -- 84
2021-02-09 09:00:00 6.9 38 Sudoeste 62 Sudoeste 0 -- -- 86
2021-02-09 08:00:00 5.6 29 Sudoeste 48 Sudoeste 0.2 -- -- 89
2021-02-09 07:00:00 3.8 17 Sudoeste 38 Sudoeste 0.2 -- -- 95
2021-02-09 06:00:00 3.7 25 Sudoeste 53 Sudoeste 0.4 -- -- 93
2021-02-09 05:00:00 4.9 36 Sudoeste 50 Sudoeste 0.2 -- -- 90
2021-02-09 04:00:00 6.2 18 Sudoeste 43 Sudoeste 0 -- -- 89
2021-02-09 03:00:00 6.5 29 Sudoeste 46 Sudoeste 0 -- -- 86
2021-02-09 02:00:00 6.8 28 Sudoeste 44 Sudoeste 0 -- -- 87
2021-02-09 01:00:00 6.4 27 Oeste 51 Oeste 0 -- -- 91
2021-02-09 00:00:00 5.8 33 Sudoeste 52 Oeste 0 -- -- 90
2021-02-08 23:00:00 5.5 25 Sudoeste 42 Sudoeste 0 -- -- 89
2021-02-08 22:00:00 5.8 23 Sudoeste 48 Sudoeste 0 -- -- 89
2021-02-08 21:00:00 6 21 Sudoeste 35 Sudoeste 0 -- -- 88
2021-02-08 20:00:00 6.3 19 Oeste 41 Sudoeste 0 -- -- 87
2021-02-08 19:00:00 6.3 26 Sudoeste 41 Sudoeste 0 -- -- 86
2021-02-08 18:00:00 6.7 20 Sudoeste 38 Sudoeste 0 -- -- 86
2021-02-08 17:00:00 8.3 20 Sudoeste 41 Oeste 0.2 -- -- 82
2021-02-08 16:00:00 8.6 30 Sudoeste 43 Oeste 0 -- -- 77
2021-02-08 15:00:00 9.3 30 Oeste 48 Oeste 0 -- -- 77
2021-02-08 14:00:00 8.3 28 Sudoeste 47 Sudoeste 0 -- -- 84
2021-02-08 13:00:00 7.3 26 Oeste 46 Oeste 0 -- -- 84
2021-02-08 12:00:00 6.4 23 Oeste 51 Sudoeste 0 -- -- 88
2021-02-08 11:00:00 6.3 28 Sudoeste 44 Oeste 0 -- -- 87
2021-02-08 10:00:00 6.4 25 Sudoeste 48 Sudoeste 0 -- -- 88
2021-02-08 09:00:00 6 24 Sudoeste 41 Oeste 0 -- -- 90
2021-02-08 08:00:00 6.1 23 Sudoeste 40 Sudoeste 0 -- -- 90
2021-02-08 07:00:00 6.6 14 Sudoeste 35 Sudoeste 0 -- -- 93
2021-02-08 06:00:00 6.8 23 Sudoeste 37 Sudoeste 0 -- -- 91
2021-02-08 05:00:00 6.4 18 Sudoeste 38 Sudoeste 0 -- -- 95
2021-02-08 04:00:00 5.9 22 Sudoeste 37 Sudoeste 0.2 -- -- 96
2021-02-08 03:00:00 5.6 13 Sudoeste 34 Sudoeste 0 -- -- 94
2021-02-08 02:00:00 5 19 Sudoeste 33 Sudoeste 0 -- -- 94
2021-02-08 01:00:00 4.7 19 Sudoeste 38 Sudoeste 0 -- -- 94
2021-02-08 00:00:00 4.6 21 Sudoeste 44 Oeste 0 -- -- 95
2021-02-07 23:00:00 4.2 9 Oeste 32 Sudoeste 0 -- -- 96
2021-02-07 22:00:00 3.5 18 Sudoeste 42 Sudoeste 0 -- -- 96
2021-02-07 21:00:00 3.3 8 Sudoeste 30 Sudoeste 0.2 -- -- 93
2021-02-07 20:00:00 3.8 14 Oeste 31 Oeste 0.4 -- -- 92
2021-02-07 19:00:00 4.5 11 Oeste 24 Oeste 0.2 -- -- 89
2021-02-07 18:00:00 4.8 15 Oeste 45 Oeste 0 -- -- 84
2021-02-07 17:00:00 5.9 27 Oeste 40 Oeste 0 -- -- 76
2021-02-07 16:00:00 6.2 23 Oeste 37 Sudoeste 0 -- -- 75
2021-02-07 15:00:00 5.8 29 Sudoeste 43 Sudoeste 0 -- -- 76
2021-02-07 14:00:00 5.4 22 Oeste 32 Sudoeste 0 -- -- 79
2021-02-07 13:00:00 5.2 21 Sudoeste 35 Oeste 0 -- -- 78
2021-02-07 12:00:00 5.1 12 Sudoeste 20 Sudoeste 0 -- -- 85
2021-02-07 11:00:00 3.2 11 Sudoeste 18 Sudoeste 0 -- -- 89
2021-02-07 10:00:00 1.1 8 Sur 13 Sur 0 -- -- 92
2021-02-07 09:00:00 -0.7 8 Sur 17 Sur 0 -- -- 95
2021-02-07 08:00:00 -0.6 10 Sur 14 Sur 0 -- -- 95
2021-02-07 07:00:00 -0.4 10 Sur 14 Sur 0 -- -- 96
2021-02-07 06:00:00 -0.3 9 Sur 12 Sur 0 -- -- 96
2021-02-07 05:00:00 0 5 Sur 8 Sur 0 -- -- 96
2021-02-07 04:00:00 0.6 5 Sur 7 Sudoeste 0 -- -- 94
2021-02-07 03:00:00 0.9 3 Sudoeste 6 Oeste 0 -- -- 95
2021-02-07 02:00:00 1.8 3 Sudoeste 7 Sudoeste 0 -- -- 94
2021-02-07 01:00:00 2.3 0 Calma 5 Noroeste 0 -- -- 96
2021-02-07 00:00:00 2.9 0 Calma 8 Noroeste 0 -- -- 95
2021-02-06 23:00:00 3.2 3 Noroeste 8 Oeste 0 -- -- 95
2021-02-06 22:00:00 3.4 0 Calma 7 Norte 0 -- -- 97
2021-02-06 21:00:00 3.6 4 Norte 26 Noroeste 0.4 -- -- 99
2021-02-06 20:00:00 4.2 4 Norte 9 Norte 0.4 -- -- 97
2021-02-06 19:00:00 4.6 3 Norte 6 Noroeste 0.2 -- -- 97
2021-02-06 18:00:00 4.9 0 Calma 10 Norte 0.6 -- -- 95
2021-02-06 17:00:00 5 5 Norte 17 Nordeste 1.4 -- -- 95
2021-02-06 16:00:00 5.5 6 Noroeste 13 Noroeste 1.6 -- -- 98
2021-02-06 15:00:00 5.8 9 Noroeste 15 Noroeste 2.2 -- -- 97
2021-02-06 14:00:00 6 6 Oeste 13 Oeste 1.8 -- -- 97
2021-02-06 13:00:00 5.8 6 Oeste 14 Noroeste 2.2 -- -- 97
2021-02-06 12:00:00 5.6 9 Noroeste 16 Noroeste 1.4 -- -- 96
2021-02-06 11:00:00 5.5 11 Noroeste 20 Noroeste 0.6 -- -- 96
2021-02-06 10:00:00 5.5 12 Noroeste 25 Noroeste 0.8 -- -- 95
2021-02-06 09:00:00 6 14 Noroeste 23 Noroeste 0.2 -- -- 95
2021-02-06 08:00:00 6.3 10 Noroeste 19 Noroeste 1 -- -- 100
2021-02-06 07:00:00 7.1 8 Noroeste 16 Noroeste 0.8 -- -- 100
2021-02-06 06:00:00 7.5 9 Este 17 Este 0 -- -- 99
2021-02-06 05:00:00 7.7 5 Nordeste 14 Nordeste 1.2 -- -- 100
2021-02-06 04:00:00 7.8 10 Nordeste 14 Nordeste 1.8 -- -- 99
2021-02-06 03:00:00 8.3 2 Sudeste 15 Este 0.8 -- -- 97
2021-02-06 02:00:00 8.7 8 Este 19 Nordeste 0 -- -- 96
2021-02-06 01:00:00 8.4 0 Calma 6 Nordeste 0 -- -- 98
2021-02-06 00:00:00 8.4 5 Nordeste 14 Nordeste 0 -- -- 98
2021-02-05 23:00:00 8.3 9 Nordeste 17 Nordeste 0 -- -- 97
2021-02-05 22:00:00 8.5 10 Nordeste 25 Nordeste 0 -- -- 96
2021-02-05 21:00:00 8.6 11 Nordeste 20 Nordeste 0 -- -- 96
2021-02-05 20:00:00 8.7 9 Nordeste 14 Nordeste 0 -- -- 96
2021-02-05 19:00:00 8.9 8 Nordeste 17 Nordeste 0 -- -- 96
2021-02-05 18:00:00 9.3 9 Nordeste 16 Nordeste 0 -- -- 94
2021-02-05 17:00:00 9.9 11 Nordeste 21 Este 0 -- -- 93
2021-02-05 16:00:00 10.6 14 Nordeste 26 Este 0 -- -- 90
2021-02-05 15:00:00 9.2 4 Norte 9 Noroeste 0 -- -- 96
2021-02-05 14:00:00 8.1 4 Nordeste 10 Norte 0 -- -- 100
2021-02-05 13:00:00 7.9 5 Norte 12 Norte 0 -- -- 100
2021-02-05 12:00:00 7.7 3 Norte 10 Noroeste 0 -- -- 100
2021-02-05 11:00:00 7.7 3 Este 13 Este 0 -- -- 100
2021-02-05 10:00:00 6.9 4 Norte 6 Norte 0 -- -- 100
2021-02-05 09:00:00 6.3 3 Sur 6 Oeste 0 -- -- 100
2021-02-05 08:00:00 5.6 0 Calma 4 Sudoeste 0 -- -- 100
2021-02-05 07:00:00 5.3 0 Calma 8 Norte 0.6 -- -- 100
2021-02-05 06:00:00 5.2 6 Norte 12 Sur 0 -- -- 100
2021-02-05 05:00:00 5 8 Sur 12 Sur 0 -- -- 100
2021-02-05 04:00:00 4.2 8 Sur 13 Sudoeste 0 -- -- 100
2021-02-05 03:00:00 4 6 Sur 11 Sudoeste 0 -- -- 100
2021-02-05 02:00:00 3.9 6 Sudoeste 9 Sur 0 -- -- 100
2021-02-05 01:00:00 4 0 Calma -- -- 0 -- -- 100
2021-02-05 00:00:00 4.6 0 Calma -- -- 0 -- -- 98
2021-02-04 23:00:00 6.1 0 Calma 3 Sudeste 0 -- -- 96
2021-02-04 22:00:00 6.8 0 Calma 6 Noroeste 0 -- -- 94
2021-02-04 21:00:00 7 4 Noroeste 13 Noroeste 0 -- -- 95
2021-02-04 20:00:00 7.5 4 Noroeste 14 Oeste 0.2 -- -- 94
2021-02-04 19:00:00 7.4 3 Noroeste 18 Noroeste 0.2 -- -- 96
2021-02-04 18:00:00 8.4 8 Norte 14 Noroeste 0 -- -- 95
2021-02-04 17:00:00 9.1 0 Calma 6 Norte 0 -- -- 95
2021-02-04 16:00:00 9 4 Norte 7 Norte 0 -- -- 95
2021-02-04 15:00:00 8.8 2 Noroeste 6 Noroeste 0 -- -- 97
2021-02-04 14:00:00 8.5 5 Norte 9 Norte 0 -- -- 97
2021-02-04 13:00:00 9 5 Noroeste 8 Nordeste 0 -- -- 94
2021-02-04 12:00:00 9.1 6 Nordeste 9 Nordeste 0 -- -- 91
2021-02-04 11:00:00 9.3 0 Calma 5 Sur 0.2 -- -- 89
2021-02-04 10:00:00 8.4 0 Calma 9 Sudeste 0 -- -- 94
2021-02-04 09:00:00 7.6 0 Calma 10 Sudoeste 0 -- -- 94
2021-02-04 08:00:00 7.9 10 Sudoeste 14 Sudoeste 0 -- -- 91
2021-02-04 07:00:00 8.2 9 Sudoeste 15 Sudoeste 0 -- -- 92
2021-02-04 06:00:00 8.5 6 Sur 12 Sudoeste 0 -- -- 93
2021-02-04 05:00:00 8.4 3 Sudoeste 10 Sudoeste 0 -- -- 94
2021-02-04 04:00:00 8.3 2 Este 14 Sudoeste 0 -- -- 92
2021-02-04 03:00:00 8.2 4 Sudoeste 31 Sudoeste 0 -- -- 91
2021-02-04 02:00:00 8.2 12 Sudoeste 29 Sudoeste 0 -- -- 91
2021-02-04 01:00:00 8.4 18 Sudoeste 36 Sudoeste 0.2 -- -- 91
2021-02-04 00:00:00 8.2 26 Sudoeste 36 Sudoeste 0 -- -- 93
2021-02-03 23:00:00 8 17 Sudoeste 26 Sudoeste 0.2 -- -- 92
2021-02-03 22:00:00 8.4 11 Sudoeste 17 Sudoeste 0.2 -- -- 92
2021-02-03 21:00:00 8.3 8 Sur 21 Sur 0.2 -- -- 94
2021-02-03 20:00:00 8.8 14 Sudoeste 24 Sudoeste 0 -- -- 90
2021-02-03 19:00:00 9 13 Sudoeste 31 Sudoeste 0.2 -- -- 92
2021-02-03 18:00:00 10.1 18 Sudoeste 32 Sudoeste 0 -- -- 85
2021-02-03 17:00:00 10.7 17 Sudoeste 31 Sudoeste 0 -- -- 84
2021-02-03 16:00:00 10.4 15 Sudoeste 30 Sudoeste 0.2 -- -- 89
2021-02-03 15:00:00 11.7 26 Sudoeste 40 Sudoeste 0 -- -- 75
2021-02-03 14:00:00 10.8 22 Sudoeste 39 Oeste 0 -- -- 83
2021-02-03 13:00:00 10.8 28 Sudoeste 49 Sudoeste 0 -- -- 83
2021-02-03 12:00:00 11.4 28 Sudoeste 47 Sudoeste 0 -- -- 77
2021-02-03 11:00:00 10.7 28 Sudoeste 51 Oeste 0 -- -- 81
2021-02-03 10:00:00 10.3 33 Sudoeste 49 Sudoeste 0 -- -- 82
2021-02-03 09:00:00 10.2 33 Sudoeste 49 Sudoeste 0 -- -- 83
2021-02-03 08:00:00 10.2 33 Sudoeste 61 Sudoeste 0 -- -- 82
2021-02-03 07:00:00 10.3 36 Sudoeste 62 Sudoeste 0 -- -- 80
2021-02-03 06:00:00 10.1 42 Sudoeste 69 Sudoeste 0 -- -- 82
2021-02-03 05:00:00 9.2 42 Sudoeste 60 Sudoeste 0 -- -- 86
2021-02-03 04:00:00 9 42 Sudoeste 70 Sudoeste 0 -- -- 87
2021-02-03 03:00:00 9.8 49 Sudoeste 82 Sudoeste 0 -- -- 76
2021-02-03 02:00:00 9.9 55 Sudoeste 85 Sudoeste 0 -- -- 75
2021-02-03 01:00:00 9.8 48 Sudoeste 73 Sudoeste 0 -- -- 76
2021-02-03 00:00:00 9.9 28 Sudoeste 48 Sudoeste 0 -- -- 77